Time;durP1;ratioP1;P1;durP2;ratioP2;P2;SDS_P1;SDS_P2;PMS_P1;PMS_P2;Temp;Humidity;BMP_temperature;BMP_pressure;BME280_temperature;BME280_humidity;BME280_pressure;Samples;Min_cycle;Max_cycle;Signal;HPM_P1;HPM_P2
2021/06/23 00:01:12;;;;;;;23.60;5.15;;;;;;;;;;5076450;28;20027;-69
2021/06/23 00:03:38;;;;;;;35.05;4.22;;;;;;;;;;5076362;28;20033;-69
2021/06/23 00:06:04;;;;;;;21.02;4.13;;;;;;;;;;5076866;28;20381;-69
2021/06/23 00:08:30;;;;;;;26.73;5.15;;;;;;;;;;5076571;28;20021;-69
2021/06/23 00:10:56;;;;;;;24.45;4.70;;;;;;;;;;5076702;28;20113;-69
2021/06/23 00:13:22;;;;;;;22.85;4.22;;;;;;;;;;5076310;28;20067;-69
2021/06/23 00:15:49;;;;;;;19.70;3.67;;;;;;;;;;5076296;28;20075;-69
2021/06/23 00:18:15;;;;;;;23.02;4.15;;;;;;;;;;5076016;28;20024;-69
2021/06/23 00:20:41;;;;;;;15.65;3.65;;;;;;;;;;5076121;28;20055;-69
2021/06/23 00:23:07;;;;;;;18.45;4.20;;;;;;;;;;5076083;28;20021;-69
2021/06/23 00:25:33;;;;;;;18.48;4.82;;;;;;;;;;5076141;28;20115;-69
2021/06/23 00:27:59;;;;;;;17.90;3.50;;;;;;;;;;5076085;28;20522;-69
2021/06/23 00:30:25;;;;;;;18.50;4.82;;;;;;;;;;5075772;28;20453;-69
2021/06/23 00:32:52;;;;;;;12.23;3.30;;;;;;;;;;5074866;28;20051;-69
2021/06/23 00:35:18;;;;;;;16.88;3.60;;;;;;;;;;5076003;28;20518;-69
2021/06/23 00:37:44;;;;;;;22.20;4.00;;;;;;;;;;5076048;28;20028;-69
2021/06/23 00:40:11;;;;;;;19.63;4.35;;;;;;;;;;5075677;28;20040;-69
2021/06/23 00:42:37;;;;;;;22.77;4.28;;;;;;;;;;5075932;28;20028;-69
2021/06/23 00:45:07;;;;;;;15.90;3.42;;;;;;;;;;5075844;28;20044;-69
2021/06/23 00:47:34;;;;;;;19.88;3.95;;;;;;;;;;5076129;28;20121;-69
2021/06/23 00:50:04;;;;;;;18.60;4.00;;;;;;;;;;5075368;28;20016;-69
2021/06/23 00:52:30;;;;;;;21.30;3.72;;;;;;;;;;5075535;28;20106;-69
2021/06/23 00:54:56;;;;;;;23.40;4.28;;;;;;;;;;5075434;28;20029;-69
2021/06/23 00:57:22;;;;;;;17.92;4.20;;;;;;;;;;5075615;28;20020;-68
2021/06/23 00:59:50;;;;;;;14.88;3.50;;;;;;;;;;5072152;28;20023;-69
2021/06/23 01:02:17;;;;;;;16.05;3.75;;;;;;;;;;5073210;28;20430;-69
2021/06/23 01:04:43;;;;;;;15.30;4.30;;;;;;;;;;5073783;28;20032;-69
2021/06/23 01:07:09;;;;;;;16.25;3.45;;;;;;;;;;5075084;28;20380;-69
2021/06/23 01:09:36;;;;;;;13.93;3.38;;;;;;;;;;5075041;28;20460;-69
2021/06/23 01:12:16;;;;;;;17.42;3.95;;;;;;;;;;5074929;28;20016;-69
2021/06/23 01:14:43;;;;;;;17.08;3.50;;;;;;;;;;5074945;28;20070;-69
2021/06/23 01:17:10;;;;;;;16.70;3.10;;;;;;;;;;5075158;28;20078;-69
2021/06/23 01:19:37;;;;;;;17.08;3.70;;;;;;;;;;5073696;28;20020;-69
2021/06/23 01:22:03;;;;;;;21.80;3.38;;;;;;;;;;5074818;28;20097;-69
2021/06/23 01:24:31;;;;;;;19.58;3.72;;;;;;;;;;5075100;28;20040;-69
2021/06/23 01:26:57;;;;;;;19.17;3.70;;;;;;;;;;5075023;28;20056;-69
2021/06/23 01:29:23;;;;;;;19.70;3.40;;;;;;;;;;5074478;28;20028;-69
2021/06/23 01:31:49;;;;;;;15.35;3.42;;;;;;;;;;5074978;28;20100;-69
2021/06/23 01:34:15;;;;;;;15.15;3.67;;;;;;;;;;5074647;28;20020;-68
2021/06/23 01:36:41;;;;;;;20.23;3.88;;;;;;;;;;5074236;28;20082;-69
2021/06/23 01:39:08;;;;;;;14.50;3.90;;;;;;;;;;5074368;28;20117;-69
2021/06/23 01:41:34;;;;;;;19.85;3.70;;;;;;;;;;5074449;28;20120;-69
2021/06/23 01:44:01;;;;;;;18.05;3.40;;;;;;;;;;5074123;28;20040;-69
2021/06/23 01:46:27;;;;;;;17.17;3.45;;;;;;;;;;5074340;28;20654;-69
2021/06/23 01:48:56;;;;;;;15.60;3.65;;;;;;;;;;5074605;28;20029;-69
2021/06/23 01:51:22;;;;;;;13.65;3.80;;;;;;;;;;5073946;28;20580;-69
2021/06/23 01:53:48;;;;;;;16.25;4.13;;;;;;;;;;5074016;28;20366;-69
2021/06/23 01:56:14;;;;;;;14.98;3.60;;;;;;;;;;5074136;28;20028;-69
2021/06/23 01:58:42;;;;;;;11.90;3.17;;;;;;;;;;5074113;28;20021;-69
2021/06/23 02:01:16;;;;;;;21.10;3.83;;;;;;;;;;5074338;28;20100;-69
2021/06/23 02:03:45;;;;;;;28.45;4.28;;;;;;;;;;5073713;28;20107;-69
2021/06/23 02:06:34;;;;;;;13.70;3.70;;;;;;;;;;5074192;28;20036;-69
2021/06/23 02:09:19;;;;;;;14.13;3.22;;;;;;;;;;5066121;28;20107;-69
2021/06/23 02:11:47;;;;;;;18.25;3.45;;;;;;;;;;5074161;28;20029;-69
2021/06/23 02:14:32;;;;;;;20.58;3.42;;;;;;;;;;5074030;28;20380;-68
2021/06/23 02:16:59;;;;;;;18.33;4.03;;;;;;;;;;5073965;28;20035;-69
2021/06/23 02:19:25;;;;;;;14.52;3.85;;;;;;;;;;5073631;28;20047;-69
2021/06/23 02:21:51;;;;;;;16.50;3.53;;;;;;;;;;5073768;28;20028;-69
2021/06/23 02:24:17;;;;;;;16.95;3.20;;;;;;;;;;5073622;28;20039;-69
2021/06/23 02:26:44;;;;;;;25.77;4.00;;;;;;;;;;5073693;28;20116;-69
2021/06/23 02:29:10;;;;;;;12.57;3.95;;;;;;;;;;5073919;28;20119;-69
2021/06/23 02:31:38;;;;;;;10.95;3.50;;;;;;;;;;5073683;28;20021;-68
2021/06/23 02:34:10;;;;;;;15.80;4.03;;;;;;;;;;5073853;28;20039;-69
2021/06/23 02:36:36;;;;;;;;;;;;;;;;;;5074269;28;20024;-69
2021/06/23 02:48:31;;;;;;;20.05;3.35;;;;;;;;;;2398559;28;22030;-70
2021/06/23 02:51:00;;;;;;;18.65;3.40;;;;;;;;;;5072969;28;20105;-68
2021/06/23 02:53:27;;;;;;;27.17;3.78;;;;;;;;;;5073149;28;20111;-68
2021/06/23 02:55:54;;;;;;;20.63;3.78;;;;;;;;;;5072073;28;20444;-68
2021/06/23 02:58:21;;;;;;;16.20;2.83;;;;;;;;;;5073176;28;20031;-68
2021/06/23 03:00:47;;;;;;;26.10;3.90;;;;;;;;;;5073247;28;20105;-68
2021/06/23 03:03:13;;;;;;;20.02;3.53;;;;;;;;;;5072978;28;20103;-68
2021/06/23 03:05:39;;;;;;;13.88;3.08;;;;;;;;;;5071845;28;20443;-69
2021/06/23 03:08:07;;;;;;;15.98;3.42;;;;;;;;;;5072967;28;20392;-68
2021/06/23 03:10:33;;;;;;;20.70;4.45;;;;;;;;;;5073179;28;20074;-68
2021/06/23 03:12:59;;;;;;;19.60;4.60;;;;;;;;;;5072639;28;20016;-68
2021/06/23 03:15:25;;;;;;;18.23;3.38;;;;;;;;;;5072239;28;20092;-68
2021/06/23 03:17:51;;;;;;;16.10;3.63;;;;;;;;;;5072977;28;20398;-69
2021/06/23 03:20:17;;;;;;;18.05;3.28;;;;;;;;;;5073187;28;20027;-69
2021/06/23 03:22:43;;;;;;;18.05;3.45;;;;;;;;;;5073002;28;20481;-69
2021/06/23 03:25:09;;;;;;;14.82;3.40;;;;;;;;;;5072790;28;20560;-69
2021/06/23 03:27:35;;;;;;;18.02;4.25;;;;;;;;;;5072927;28;20078;-69
2021/06/23 03:30:02;;;;;;;20.02;3.92;;;;;;;;;;5072872;28;20123;-69
2021/06/23 03:32:28;;;;;;;14.50;3.80;;;;;;;;;;5073044;28;20031;-69
2021/06/23 03:34:54;;;;;;;13.50;3.30;;;;;;;;;;5072776;28;20029;-69
2021/06/23 03:37:20;;;;;;;18.10;4.32;;;;;;;;;;5073046;28;20377;-69
2021/06/23 03:39:46;;;;;;;17.23;3.67;;;;;;;;;;5072699;28;20500;-69
2021/06/23 03:42:12;;;;;;;12.38;3.42;;;;;;;;;;5072969;28;20024;-68
2021/06/23 03:44:39;;;;;;;18.38;3.72;;;;;;;;;;5072741;28;20032;-69
2021/06/23 03:47:05;;;;;;;24.63;3.88;;;;;;;;;;5072744;28;20058;-69
2021/06/23 03:49:32;;;;;;;13.52;4.00;;;;;;;;;;5072524;28;20060;-69
2021/06/23 03:51:58;;;;;;;16.48;3.88;;;;;;;;;;5072732;28;20035;-69
2021/06/23 03:54:24;;;;;;;17.77;4.07;;;;;;;;;;5072662;28;20115;-70
2021/06/23 03:56:50;;;;;;;18.35;4.28;;;;;;;;;;5072611;28;20067;-70
2021/06/23 03:59:17;;;;;;;18.42;3.83;;;;;;;;;;5072724;28;20029;-71
2021/06/23 04:01:43;;;;;;;12.82;3.60;;;;;;;;;;5072781;28;20500;-70
2021/06/23 04:04:09;;;;;;;19.63;4.22;;;;;;;;;;5072360;28;20040;-70
2021/06/23 04:06:35;;;;;;;20.70;4.43;;;;;;;;;;5072692;28;20020;-70
2021/06/23 04:09:01;;;;;;;24.17;3.85;;;;;;;;;;5072840;28;20032;-70
2021/06/23 04:11:27;;;;;;;21.05;4.05;;;;;;;;;;5072557;28;20017;-70
2021/06/23 04:13:53;;;;;;;26.35;4.13;;;;;;;;;;5072533;28;20441;-70
2021/06/23 04:16:19;;;;;;;24.38;5.13;;;;;;;;;;5072418;28;20040;-70
2021/06/23 04:18:45;;;;;;;22.95;3.72;;;;;;;;;;5070207;28;20504;-70
2021/06/23 04:21:11;;;;;;;19.67;4.35;;;;;;;;;;5071970;28;20023;-71
2021/06/23 04:23:37;;;;;;;15.63;3.60;;;;;;;;;;5072660;28;20377;-70
2021/06/23 04:26:03;;;;;;;20.60;3.80;;;;;;;;;;5072952;28;20021;-70
2021/06/23 04:28:29;;;;;;;21.42;3.67;;;;;;;;;;5074977;28;20024;-70
2021/06/23 04:30:55;;;;;;;16.35;3.45;;;;;;;;;;5075753;28;20033;-71
2021/06/23 04:33:21;;;;;;;27.70;3.50;;;;;;;;;;5076198;28;20039;-70
2021/06/23 04:35:49;;;;;;;39.85;4.43;;;;;;;;;;5076073;28;20029;-70
2021/06/23 04:38:15;;;;;;;26.77;4.63;;;;;;;;;;5075900;28;20052;-70
2021/06/23 04:40:41;;;;;;;17.27;3.60;;;;;;;;;;5075449;28;20028;-71
2021/06/23 04:43:07;;;;;;;25.20;4.03;;;;;;;;;;5076539;28;20480;-72
2021/06/23 04:45:33;;;;;;;18.13;4.70;;;;;;;;;;5074299;28;20033;-71
2021/06/23 04:47:59;;;;;;;24.55;4.68;;;;;;;;;;5075678;28;20430;-72
2021/06/23 04:50:25;;;;;;;23.08;5.03;;;;;;;;;;5075194;28;20059;-71
2021/06/23 04:52:51;;;;;;;35.13;4.30;;;;;;;;;;5075570;28;20021;-71
2021/06/23 04:55:17;;;;;;;28.13;4.97;;;;;;;;;;5075839;28;20439;-71
2021/06/23 04:57:44;;;;;;;28.23;4.00;;;;;;;;;;5075968;28;20377;-71
2021/06/23 05:00:11;;;;;;;17.15;3.80;;;;;;;;;;5075247;28;20020;-71
2021/06/23 05:02:37;;;;;;;22.23;3.83;;;;;;;;;;5075351;28;20028;-72
2021/06/23 05:05:04;;;;;;;18.80;4.18;;;;;;;;;;5075493;28;20111;-71
2021/06/23 05:07:30;;;;;;;24.65;4.22;;;;;;;;;;5073893;28;20025;-71
2021/06/23 05:09:56;;;;;;;22.65;3.72;;;;;;;;;;5075421;28;20453;-71
2021/06/23 05:12:26;;;;;;;36.65;5.10;;;;;;;;;;5075391;28;20021;-71
2021/06/23 05:14:52;;;;;;;20.65;3.63;;;;;;;;;;5075222;28;20063;-71
2021/06/23 05:17:18;;;;;;;23.38;4.15;;;;;;;;;;5075013;28;20028;-71
2021/06/23 05:19:44;;;;;;;16.35;3.60;;;;;;;;;;5075276;28;20033;-71
2021/06/23 05:22:11;;;;;;;24.55;4.10;;;;;;;;;;5075377;28;20099;-71
2021/06/23 05:24:38;;;;;;;17.92;3.63;;;;;;;;;;5075177;28;20032;-71
2021/06/23 05:27:04;;;;;;;21.95;4.25;;;;;;;;;;5075220;28;20020;-71
2021/06/23 05:29:30;;;;;;;23.75;3.80;;;;;;;;;;5075038;28;20047;-71
2021/06/23 05:31:56;;;;;;;34.72;3.85;;;;;;;;;;5075150;28;20377;-68
2021/06/23 05:34:22;;;;;;;21.70;4.13;;;;;;;;;;5074877;28;20032;-72
2021/06/23 05:36:48;;;;;;;17.63;3.83;;;;;;;;;;5073800;28;20020;-67
2021/06/23 05:39:14;;;;;;;26.02;4.90;;;;;;;;;;5074504;28;20111;-67
2021/06/23 05:41:40;;;;;;;40.75;4.07;;;25.20;53.00;;;;;;5074883;28;20016;-67
2021/06/23 05:44:06;;;;;;;26.95;4.03;;;;;;;;;;5074603;28;20082;-68
2021/06/23 05:46:32;;;;;;;16.13;3.25;;;;;;;;;;5074421;28;20020;-67
2021/06/23 05:48:58;;;;;;;18.90;3.47;;;;;;;;;;5074246;28;20043;-67
2021/06/23 05:51:24;;;;;;;40.42;9.13;;;;;;;;;;5074519;28;20171;-67
2021/06/23 05:53:50;;;;;;;22.52;4.68;;;;;;;;;;5074875;28;20032;-66
2021/06/23 05:56:16;;;;;;;44.30;13.07;;;;;;;;;;5074636;28;20032;-67
2021/06/23 05:58:43;;;;;;;20.30;3.83;;;;;;;;;;5074503;28;20033;-67
2021/06/23 06:01:09;;;;;;;32.22;6.22;;;;;;;;;;5074228;28;20020;-67
2021/06/23 06:03:35;;;;;;;20.70;5.65;;;;;;;;;;5074154;28;20108;-68
2021/06/23 06:06:02;;;;;;;19.88;3.65;;;;;;;;;;5074259;28;20477;-67
2021/06/23 06:08:29;;;;;;;194.00;50.83;;;;;;;;;;5074463;28;20025;-67
2021/06/23 06:10:55;;;;;;;116.07;39.30;;;;;;;;;;5074352;28;20478;-66
2021/06/23 06:13:21;;;;;;;93.68;25.42;;;;;;;;;;5074088;28;20035;-66
2021/06/23 06:15:47;;;;;;;66.60;18.98;;;;;;;;;;5074245;28;20021;-67
2021/06/23 06:18:14;;;;;;;57.97;21.17;;;;;;;;;;5074221;28;20032;-66
2021/06/23 06:20:40;;;;;;;93.85;28.20;;;;;;;;;;5073948;28;20048;-66
2021/06/23 06:23:06;;;;;;;27.75;7.05;;;;;;;;;;5073844;28;20039;-70
2021/06/23 06:25:33;;;;;;;43.58;10.00;;;;;;;;;;5073202;28;20032;-67
2021/06/23 06:27:59;;;;;;;65.15;25.45;;;;;;;;;;5073806;28;20496;-67
2021/06/23 06:30:26;;;;;;;53.35;19.80;;;;;;;;;;5073536;28;20020;-67
2021/06/23 06:32:52;;;;;;;75.97;24.63;;;;;;;;;;5073783;28;20476;-67
2021/06/23 06:35:18;;;;;;;61.88;23.88;;;;;;;;;;5073606;28;20094;-66
2021/06/23 06:53:45;;;;;;;23.00;4.80;;;;;;;;;;5110783;27;20391;-67
2021/06/23 06:56:11;;;;;;;20.58;4.28;;;;;;;;;;5110857;28;20028;-67
2021/06/23 06:58:37;;;;;;;19.13;3.88;;;;;;;;;;5111059;28;20060;-68
2021/06/23 07:01:03;;;;;;;12.52;2.90;;;;;;;;;;5110809;28;20016;-69
2021/06/23 07:03:31;;;;;;;22.02;3.80;;;;;;;;;;5110397;28;20066;-70
2021/06/23 07:05:57;;;;;;;19.23;3.28;;;;;;;;;;5110716;28;20044;-69
2021/06/23 07:08:23;;;;;;;17.35;3.15;;;;;;;;;;5110594;28;20020;-69
2021/06/23 07:10:49;;;;;;;21.33;3.50;;;;;;;;;;5110571;28;20050;-68
2021/06/23 07:13:15;;;;;;;25.20;3.85;;;;;;;;;;5110311;28;20024;-69
2021/06/23 07:15:41;;;;;;;18.75;3.83;;;;;;;;;;5110414;28;20024;-70
2021/06/23 07:18:07;;;;;;;19.90;4.10;;;;;;;;;;5110359;28;20019;-69
2021/06/23 07:20:33;;;;;;;15.13;3.50;;;;;;;;;;5110353;28;20468;-68
2021/06/23 07:22:59;;;;;;;17.23;3.50;;;;;;;;;;5110027;28;20032;-68
2021/06/23 07:25:25;;;;;;;21.40;4.32;;;;;;;;;;5110353;28;20035;-68
2021/06/23 07:27:51;;;;;;;20.23;4.93;;;;;;;;;;5110119;28;20125;-69
2021/06/23 07:30:18;;;;;;;24.33;4.70;;;;;;;;;;5110151;28;20024;-69
2021/06/23 07:37:55;;;;;;;21.00;3.90;;;;;;;;;;5110237;28;20049;-69
2021/06/23 07:40:33;;;;;;;23.00;5.00;;;;;;;;;;5110065;28;20024;-68
2021/06/23 07:42:59;;;;;;;20.20;4.45;;;;;;;;;;5109899;28;20032;-69
2021/06/23 07:45:25;;;;;;;22.70;4.53;;;;;;;;;;5109870;28;20436;-68
2021/06/23 07:47:52;;;;;;;29.02;5.15;;;;;;;;;;5109819;28;20442;-69
2021/06/23 07:50:18;;;;;;;22.75;6.10;;;;;;;;;;5109747;28;20077;-68
2021/06/23 07:53:03;;;;;;;24.55;4.03;;;;;;;;;;5107068;28;20081;-69
2021/06/23 08:09:26;;;;;;;30.05;5.05;;;;;;;;;;5096306;28;20069;-69
2021/06/23 08:11:55;;;;;;;32.78;4.90;;;;;;;;;;5095762;28;20048;-69
2021/06/23 08:14:21;;;;;;;26.35;5.00;;;;;;;;;;5095665;28;20020;-68
2021/06/23 08:16:48;;;;;;;21.30;4.68;;;;;;;;;;5095835;28;20024;-68
2021/06/23 08:19:14;;;;;;;24.90;5.10;;;;;;;;;;5095685;28;20085;-68
2021/06/23 08:21:40;;;;;;;37.88;5.68;;;;;;;;;;5095480;28;20036;-68
2021/06/23 08:24:06;;;;;;;45.17;10.80;;;;;;;;;;5095458;28;20028;-68
2021/06/23 08:26:32;;;;;;;29.85;5.10;;;;;;;;;;5095678;28;20025;-68
2021/06/23 08:28:58;;;;;;;37.08;6.72;;;;;;;;;;5095598;28;20028;-68
2021/06/23 08:31:24;;;;;;;58.42;11.40;;;;;;;;;;5095939;28;20036;-68
2021/06/23 08:33:53;;;;;;;34.67;6.35;;;;;;;;;;5095932;28;20020;-68
2021/06/23 08:36:19;;;;;;;31.02;6.07;;;;;;;;;;5095745;28;20105;-68
2021/06/23 08:38:45;;;;;;;33.10;5.97;;;;;;;;;;5095266;28;20066;-68
2021/06/23 08:41:11;;;;;;;50.75;9.23;;;;;;;;;;5095412;28;20032;-68
2021/06/23 09:15:07;;;;;;;41.75;6.30;;;;;;;;;;5070672;28;20394;-68
2021/06/23 09:17:34;;;;;;;44.65;5.47;;;;;;;;;;5070286;28;20024;-68
2021/06/23 09:20:01;;;;;;;39.13;6.30;;;;;;;;;;5070294;28;20021;-68
2021/06/23 09:22:29;;;;;;;39.33;6.18;;;;;;;;;;5070342;28;20079;-68
2021/06/23 09:24:55;;;;;;;26.05;4.95;;;;;;;;;;5070291;28;20017;-68
2021/06/23 09:27:23;;;;;;;35.83;5.88;;;;;;;;;;5066593;28;20029;-68
2021/06/23 09:29:51;;;;;;;37.03;6.28;;;;;;;;;;5052780;28;20481;-69
2021/06/23 09:32:17;;;;;;;35.10;6.55;;;;;;;;;;5050171;28;20033;-68
2021/06/23 09:34:46;;;;;;;32.97;5.93;;;;;;;;;;5049659;28;20041;-69
2021/06/23 09:37:31;;;;;;;35.72;6.88;;;;;;;;;;5050254;28;20052;-68
2021/06/23 09:40:18;;;;;;;31.20;6.40;;;;;;;;;;5050028;28;20108;-69
2021/06/23 09:42:44;;;;;;;37.15;5.60;;;;;;;;;;5049354;28;20095;-69
2021/06/23 09:45:11;;;;;;;27.83;6.13;;;;;;;;;;5049947;28;20477;-69
2021/06/23 09:47:38;;;;;;;41.40;6.45;;;;;;;;;;5049542;28;20029;-69
2021/06/23 09:50:09;;;;;;;38.10;5.95;;;;;;;;;;5049728;28;20021;-68
2021/06/23 09:52:36;;;;;;;35.75;7.00;;;;;;;;;;5049821;28;20100;-68
2021/06/23 09:55:03;;;;;;;35.53;5.63;;;;;;;;;;5049520;28;20048;-69
2021/06/23 09:57:30;;;;;;;35.30;6.43;;;;;;;;;;5049452;28;20056;-69
2021/06/23 10:00:12;;;;;;;31.67;6.60;;;;;;;;;;5048906;28;20071;-69
2021/06/23 10:02:38;;;;;;;39.20;6.45;;;;;;;;;;5048968;28;20432;-67
2021/06/23 10:05:19;;;;;;;43.50;6.78;;;;;;;;;;5049267;28;20025;-67
2021/06/23 10:07:46;;;;;;;48.50;6.82;;;;;;;;;;5047777;28;20608;-67
2021/06/23 10:10:21;;;;;;;46.83;7.43;;;;;;;;;;5047584;28;20067;-69
2021/06/23 10:12:51;;;;;;;38.45;7.35;;;;;;;;;;5048764;28;20102;-69
2021/06/23 10:15:18;;;;;;;32.38;5.82;;;;;;;;;;5049220;28;20029;-71
2021/06/23 10:17:44;;;;;;;40.05;6.72;;;;;;;;;;5049348;28;20070;-69
2021/06/23 10:20:11;;;;;;;33.88;7.07;;;;;;;;;;5049041;28;20025;-69
2021/06/23 10:22:39;;;;;;;34.78;6.72;;;;;;;;;;5049088;28;20025;-69
2021/06/23 10:25:06;;;;;;;31.77;6.15;;;;;;;;;;5043464;28;20022;-68
2021/06/23 10:27:34;;;;;;;33.00;6.28;;;;;;;;;;5036082;28;20419;-68
2021/06/23 10:30:01;;;;;;;35.92;6.22;;;;;;;;;;5035579;28;20026;-68
2021/06/23 10:32:27;;;;;;;40.53;6.45;;;;;;;;;;5035133;28;20025;-68
2021/06/23 10:34:53;;;;;;;33.15;6.43;;;;;;;;;;5034490;28;20037;-68
2021/06/23 10:37:20;;;;;;;32.83;5.93;;;;;;;;;;5035344;28;20069;-68
2021/06/23 10:39:47;;;;;;;39.88;6.07;;;;;;;;;;5035712;28;20366;-68
2021/06/23 10:42:13;;;;;;;37.60;6.82;;;;;;;;;;5035372;28;20032;-68
2021/06/23 10:44:43;;;;;;;36.78;6.93;;;;;;;;;;5035227;28;20032;-67
2021/06/23 10:47:11;;;;;;;30.52;6.22;;;;;;;;;;5035832;28;20025;-68
2021/06/23 10:49:40;;;;;;;30.65;6.22;;;;;;;;;;5035340;28;20032;-68
2021/06/23 10:52:21;;;;;;;36.67;6.85;;;;;;;;;;5035643;28;20048;-68
2021/06/23 10:54:48;;;;;;;37.58;6.07;;;;;;;;;;5035689;28;20045;-67
2021/06/23 10:57:32;;;;;;;42.83;6.57;;;;;;;;;;5035221;28;20028;-67
2021/06/23 11:00:00;;;;;;;32.20;5.90;;;;;;;;;;5035236;28;20029;-68
2021/06/23 11:02:38;;;;;;;34.05;6.47;;;;;;;;;;5035348;28;20519;-68
2021/06/23 11:05:05;;;;;;;34.38;5.95;;;;;;;;;;5035330;28;20033;-68
2021/06/23 11:07:35;;;;;;;31.63;5.78;;;;;;;;;;5035207;28;20053;-68
2021/06/23 11:10:14;;;;;;;43.67;6.32;;;;;;;;;;5035200;28;20021;-68
2021/06/23 11:12:43;;;;;;;30.20;6.28;;;;;;;;;;5034892;28;20495;-68
2021/06/23 11:15:12;;;;;;;36.22;6.22;;;;;;;;;;5033225;28;20060;-67
2021/06/23 11:17:39;;;;;;;44.53;7.22;;;;;;;;;;5032266;28;20033;-68
2021/06/23 11:20:25;;;;;;;44.13;7.05;;;;;;;;;;5032416;28;20440;-70
2021/06/23 11:22:52;;;;;;;49.03;7.63;;;;;;;;;;5034329;28;20038;-68
2021/06/23 11:25:44;;;;;;;36.50;6.05;;;;;;;;;;5034676;28;20481;-68
2021/06/23 11:28:12;;;;;;;44.90;7.93;;;;;;;;;;5034311;28;20509;-68
2021/06/23 11:30:53;;;;;;;36.97;6.70;;;;;;;;;;5033935;28;20032;-68
2021/06/23 11:33:28;;;;;;;50.95;7.47;;;;;;;;;;5031643;28;20033;-69
2021/06/23 11:35:54;;;;;;;43.20;8.10;;;;;;;;;;5032064;28;20037;-66
2021/06/23 11:38:20;;;;;;;36.90;6.43;;;;;;;;;;5033364;28;20104;-68
2021/06/23 11:40:47;;;;;;;37.17;6.03;;;;;;;;;;5034730;28;20029;-68
2021/06/23 11:43:13;;;;;;;35.25;5.95;;;;;;;;;;5034502;28;20032;-67
2021/06/23 11:45:39;;;;;;;42.47;7.13;;;;;;;;;;5034567;28;20033;-68
2021/06/23 11:48:05;;;;;;;32.45;7.43;;;;;;;;;;5034602;28;20060;-67
2021/06/23 11:50:31;;;;;;;40.10;7.28;;;;;;;;;;5034574;28;20022;-68
2021/06/23 11:52:57;;;;;;;34.58;6.75;;;;;;;;;;5033952;28;20071;-68
2021/06/23 11:55:24;;;;;;;37.55;6.45;;;;;;;;;;5034141;28;20473;-68
2021/06/23 11:57:51;;;;;;;35.58;6.82;;;;;;;;;;5034142;28;20029;-68
2021/06/23 12:00:17;;;;;;;31.98;5.93;;;;;;;;;;5033895;28;20120;-68
2021/06/23 12:02:43;;;;;;;38.10;6.93;;;;;;;;;;5034219;28;20029;-67
2021/06/23 12:05:09;;;;;;;39.90;7.20;;;;;;;;;;5034161;28;20100;-68
2021/06/23 12:07:36;;;;;;;39.05;7.13;;;;;;;;;;5034042;28;20441;-69
2021/06/23 12:10:02;;;;;;;32.50;6.25;;;;;;;;;;5033857;28;20112;-70
2021/06/23 12:12:29;;;;;;;33.13;6.70;;;;;;;;;;5033814;28;20380;-69
2021/06/23 12:14:55;;;;;;;39.05;6.80;;;;;;;;;;5033475;28;20393;-69
2021/06/23 12:17:21;;;;;;;48.25;6.82;;;;;;;;;;5033719;28;20022;-70
2021/06/23 12:19:47;;;;;;;42.63;6.68;;;;;;;;;;5033689;28;20108;-69
2021/06/23 12:22:14;;;;;;;43.55;6.90;;;;;;;;;;5033815;28;20022;-70
2021/06/23 12:24:40;;;;;;;34.13;6.88;;;;;;;;;;5033887;28;20075;-70
2021/06/23 12:27:07;;;;;;;40.95;6.75;;;;;;;;;;5034039;28;20433;-70
2021/06/23 12:29:35;;;;;;;31.35;6.22;;;;;;;;;;5033672;28;20048;-71
2021/06/23 12:32:02;;;;;;;37.15;7.00;;;;;;;;;;5033409;28;20022;-70
2021/06/23 12:34:29;;;;;;;39.80;6.50;;;;;;;;;;5033278;28;20037;-70
2021/06/23 12:36:55;;;;;;;33.72;7.60;;;;;;;;;;5033537;28;20033;-70
2021/06/23 12:39:22;;;;;;;38.28;5.93;;;;;;;;;;5033627;28;20025;-69
2021/06/23 12:41:48;;;;;;;40.50;7.15;;;;;;;;;;5033560;28;20029;-70
2021/06/23 12:44:14;;;;;;;29.45;7.20;;;;;;;;;;5033206;28;20053;-69
2021/06/23 12:46:40;;;;;;;33.17;6.50;;;;;;;;;;5032081;28;20033;-70
2021/06/23 12:49:06;;;;;;;36.08;7.65;;;;;;;;;;5033243;28;20025;-70
2021/06/23 12:51:33;;;;;;;31.52;6.85;;;;;;;;;;5033486;28;20025;-70
2021/06/23 12:53:59;;;;;;;33.33;6.05;;;;;;;;;;5033171;28;20038;-70
2021/06/23 12:56:25;;;;;;;24.27;4.88;;;;;;;;;;5033274;28;20028;-71
2021/06/23 12:58:51;;;;;;;31.63;5.93;;;;;;;;;;5032459;28;20417;-70
2021/06/23 13:01:18;;;;;;;30.98;5.55;;;;;;;;;;5031915;28;20025;-70
2021/06/23 13:03:44;;;;;;;30.10;5.03;;;;;;;;;;5032343;28;20057;-67
2021/06/23 13:06:10;;;;;;;26.42;5.05;;;;;;;;;;5036572;28;20093;-70
2021/06/23 13:08:37;;;;;;;25.88;4.88;;;;;;;;;;5051732;28;20033;-69
2021/06/23 13:11:03;;;;;;;21.83;3.95;;;;;;;;;;5052178;28;20477;-67
2021/06/23 13:13:30;;;;;;;23.75;4.68;;;;;;;;;;5052090;28;20520;-70
2021/06/23 13:15:58;;;;;;;23.27;4.55;;;;;;;;;;5052166;28;20086;-69
2021/06/23 13:18:24;;;;;;;21.38;4.35;;;;;;;;;;5052707;28;20405;-68
2021/06/23 13:20:50;;;;;;;18.65;4.10;;;;;;;;;;5052604;28;20029;-68
2021/06/23 13:23:18;;;;;;;20.90;4.50;;;;;;;;;;5052388;28;20112;-68
2021/06/23 13:25:44;;;;;;;23.27;4.40;;;;;;;;;;5052438;28;20049;-69
2021/06/23 13:28:11;;;;;;;23.20;4.57;;;;;;;;;;5052512;28;20040;-69
2021/06/23 13:30:37;;;;;;;34.03;4.97;;;;;;;;;;5050900;28;20021;-69
2021/06/23 13:33:03;;;;;;;25.13;4.65;;;;;;;;;;5052388;28;20029;-70
2021/06/23 13:35:29;;;;;;;25.10;4.63;;;;;;;;;;5052803;28;20377;-69
2021/06/23 13:37:55;;;;;;;28.60;5.60;;;;;;;;;;5052068;28;20094;-69
2021/06/23 13:40:23;;;;;;;31.13;5.35;;;;;;;;;;5052197;28;20104;-68
2021/06/23 13:42:49;;;;;;;34.13;5.18;;;;;;;;;;5052018;28;20021;-68
2021/06/23 13:45:16;;;;;;;27.73;5.70;;;;;;;;;;5048732;28;20517;-68
2021/06/23 13:47:42;;;;;;;31.95;5.43;;;;;;;;;;5042730;28;20021;-67
2021/06/23 13:50:11;;;;;;;34.17;6.72;;;;;;;;;;5041971;28;20116;-69
2021/06/23 13:52:40;;;;;;;33.88;5.40;;;;;;;;;;5037974;28;20033;-66
2021/06/23 13:55:06;;;;;;;40.10;6.35;;;;;;;;;;5032148;28;20044;-67
2021/06/23 13:57:34;;;;;;;27.88;5.22;;;;;;;;;;5031966;28;20535;-66
2021/06/23 14:00:02;;;;;;;27.67;5.40;;;;;;;;;;5033177;28;20075;-66
2021/06/23 14:02:28;;;;;;;33.38;6.05;;;;;;;;;;5035680;28;20113;-69
2021/06/23 14:04:54;;;;;;;24.90;4.97;;;;;;;;;;5043049;28;20104;-70
2021/06/23 14:07:20;;;;;;;32.20;5.70;;;;;;;;;;5049941;28;20100;-69
2021/06/23 14:09:47;;;;;;;29.10;5.45;;;;;;;;;;5055593;28;20040;-69
2021/06/23 14:12:13;;;;;;;34.42;5.95;;;;;;;;;;5055525;28;20713;-67
2021/06/23 14:14:39;;;;;;;30.88;4.78;;;;;;;;;;5055272;28;20056;-67
2021/06/23 14:17:05;;;;;;;31.65;5.90;;;;;;;;;;5055472;28;20029;-69
2021/06/23 14:19:31;;;;;;;27.77;5.95;;;;;;;;;;5055651;28;20032;-67
2021/06/23 14:21:57;;;;;;;30.90;5.80;;;;;;;;;;5055503;28;20473;-69
2021/06/23 14:24:23;;;;;;;26.15;6.05;;;;;;;;;;5055428;28;20032;-68
2021/06/23 14:26:51;;;;;;;28.33;5.78;;;;;;;;;;5055802;28;20021;-69
2021/06/23 14:29:17;;;;;;;35.40;6.30;;;;;;;;;;5055767;28;20078;-69
2021/06/23 14:31:43;;;;;;;37.03;6.20;;;;;;;;;;5055438;28;20029;-69
2021/06/23 14:34:09;;;;;;;36.30;6.72;;;;;;;;;;5054884;28;20037;-69
2021/06/23 14:36:35;;;;;;;31.48;6.60;;;;;;;;;;5055458;28;20021;-67
2021/06/23 14:39:01;;;;;;;36.75;7.05;;;;;;;;;;5055658;28;20025;-68
2021/06/23 14:41:28;;;;;;;27.42;6.65;;;;;;;;;;5055580;28;20534;-68
2021/06/23 14:43:54;;;;;;;39.92;7.03;;;;;;;;;;5055261;28;20385;-67
2021/06/23 14:46:20;;;;;;;38.85;7.00;;;;;;;;;;5053860;28;20095;-66
2021/06/23 14:48:46;;;;;;;30.60;6.55;;;;;;;;;;5054816;28;20028;-67
2021/06/23 14:51:12;;;;;;;36.17;6.50;;;;;;;;;;5054952;28;20032;-65
2021/06/23 14:53:38;;;;;;;30.33;6.18;;;;;;;;;;5054391;28;20112;-65
2021/06/23 14:56:04;;;;;;;31.25;7.25;;;;;;;;;;5054133;28;20032;-66
2021/06/23 14:58:30;;;;;;;34.92;6.47;;;;;;;;;;5054385;28;20032;-67
2021/06/23 15:00:56;;;;;;;25.00;6.35;;;;;;;;;;5054628;28;20028;-68
2021/06/23 15:03:22;;;;;;;34.08;7.07;;;;;;;;;;5053470;28;20040;-67
2021/06/23 15:05:48;;;;;;;39.10;7.25;;;;;;;;;;5054108;28;20021;-67
2021/06/23 15:08:14;;;;;;;41.53;7.47;;;;;;;;;;5054723;28;20035;-68
2021/06/23 15:10:40;;;;;;;28.67;6.65;;;;;;;;;;5052918;28;20397;-66
2021/06/23 15:13:06;;;;;;;27.85;6.50;;;;;;;;;;5043236;28;20046;-67
2021/06/23 15:15:32;;;;;;;39.70;7.55;;;;;;;;;;5042703;28;20112;-68
2021/06/23 15:17:59;;;;;;;33.67;6.85;;;;;;;;;;5043035;28;20021;-68
2021/06/23 15:20:25;;;;;;;31.60;6.97;;;;;;;;;;5043845;28;20034;-68
2021/06/23 15:22:51;;;;;;;32.38;6.07;;;;;;;;;;5044836;28;20021;-68
2021/06/23 15:25:17;;;;;;;37.92;6.72;;;;;;;;;;5037117;28;20113;-67
2021/06/23 15:27:44;;;;;;;39.85;7.72;;;;;;;;;;5037143;28;20064;-68
2021/06/23 15:30:11;;;;;;;39.10;7.47;;;;;;;;;;5053427;28;20056;-67
2021/06/23 15:32:37;;;;;;;36.80;7.55;;;;;;;;;;5053588;28;20036;-66
2021/06/23 15:35:04;;;;;;;33.55;7.03;;;;;;;;;;5052693;28;20033;-67
2021/06/23 15:37:30;;;;;;;32.95;7.18;;;;;;;;;;5053423;28;20029;-66
2021/06/23 15:39:58;;;;;;;34.63;7.53;;;;;;;;;;5053835;28;20025;-67
2021/06/23 15:42:24;;;;;;;37.63;7.65;;;;;;;;;;5053910;28;20025;-67
2021/06/23 15:44:50;;;;;;;45.78;7.82;;;;;;;;;;5053727;28;20032;-68